Time,TemperatureF,DewpointF,PressureIn,WindDirection,WindDirectionDegrees,WindSpeedMPH,WindSpeedGustMPH,Humidity,HourlyPrecipIn,Conditions,Clouds,dailyrainin,SoftwareType,DateUTC
2013-05-22 00:00:00,71.1,67.0,29.81,SSW,205,0.0,2.0,87,0.00,,---,0.00,VWS V14.01,2013-05-22 04:00:00,
2013-05-22 00:01:00,71.1,67.0,29.81,SSW,205,1.0,2.0,87,0.00,,---,0.00,VWS V14.01,2013-05-22 04:01:00,
2013-05-22 00:06:00,70.9,67.2,29.82,SSW,207,2.0,4.0,88,0.00,,---,0.00,VWS V14.01,2013-05-22 04:06:00,
2013-05-22 00:11:00,70.9,67.2,29.82,SSW,207,0.0,0.0,88,0.00,,---,0.00,VWS V14.01,2013-05-22 04:11:00,
2013-05-22 00:16:00,70.9,67.2,29.82,SSW,207,0.0,0.0,88,0.00,,---,0.00,VWS V14.01,2013-05-22 04:16:00,
2013-05-22 00:21:00,70.8,67.1,29.81,SW,215,0.0,2.0,88,0.00,,---,0.00,VWS V14.01,2013-05-22 04:21:00,
2013-05-22 00:26:00,70.8,67.4,29.81,SSW,202,3.0,5.0,89,0.00,,---,0.00,VWS V14.01,2013-05-22 04:26:00,
2013-05-22 00:31:00,70.8,67.4,29.81,SSW,202,1.0,2.0,89,0.00,,---,0.00,VWS V14.01,2013-05-22 04:31:00,
2013-05-22 00:36:00,70.8,67.4,29.81,SSW,211,3.0,9.0,89,0.00,,---,0.00,VWS V14.01,2013-05-22 04:36:00,
2013-05-22 00:41:00,70.8,67.4,29.81,SW,236,3.0,5.0,89,0.00,,---,0.00,VWS V14.01,2013-05-22 04:41:00,
2013-05-22 00:42:00,70.8,67.4,29.81,SW,219,7.0,7.0,89,0.00,,---,0.00,VWS V14.01,2013-05-22 04:42:00,
2013-05-22 00:46:00,70.9,67.5,29.81,WSW,242,4.0,5.0,89,0.00,,---,0.00,VWS V14.01,2013-05-22 04:46:00,
2013-05-22 00:47:00,70.9,67.5,29.81,WSW,242,4.0,7.0,89,0.00,,---,0.00,VWS V14.01,2013-05-22 04:47:00,
2013-05-22 00:51:00,70.9,67.5,29.81,WSW,238,0.0,0.0,89,0.00,,---,0.00,VWS V14.01,2013-05-22 04:51:00,
2013-05-22 00:52:00,70.9,67.5,29.81,WSW,238,0.0,0.0,89,0.00,,---,0.00,VWS V14.01,2013-05-22 04:52:00,
2013-05-22 00:56:00,70.9,67.8,29.81,WSW,250,0.0,1.0,90,0.00,,---,0.00,VWS V14.01,2013-05-22 04:56:00,
2013-05-22 00:57:00,70.9,67.5,29.81,WSW,250,0.0,0.0,89,0.00,,---,0.00,VWS V14.01,2013-05-22 04:57:00,
2013-05-22 01:01:00,70.9,67.5,29.81,WSW,250,2.0,3.0,89,0.00,,---,0.00,VWS V14.01,2013-05-22 05:01:00,
2013-05-22 01:02:00,70.9,67.5,29.81,WSW,248,4.0,4.0,89,0.00,,---,0.00,VWS V14.01,2013-05-22 05:02:00,
2013-05-22 01:06:00,70.8,67.4,29.80,WSW,248,0.0,0.0,89,0.00,,---,0.00,VWS V14.01,2013-05-22 05:06:00,
2013-05-22 01:07:00,70.8,67.4,29.80,WSW,248,0.0,0.0,89,0.00,,---,0.00,VWS V14.01,2013-05-22 05:07:00,
2013-05-22 01:11:00,70.8,67.4,29.80,WSW,247,1.0,5.0,89,0.00,,---,0.00,VWS V14.01,2013-05-22 05:11:00,
2013-05-22 01:12:00,70.8,67.4,29.80,WSW,247,0.0,5.0,89,0.00,,---,0.00,VWS V14.01,2013-05-22 05:12:00,
2013-05-22 01:16:00,70.6,67.2,29.80,SW,223,2.0,4.0,89,0.00,,---,0.00,VWS V14.01,2013-05-22 05:16:00,
2013-05-22 01:17:00,70.6,67.2,29.80,SW,223,3.0,4.0,89,0.00,,---,0.00,VWS V14.01,2013-05-22 05:17:00,
2013-05-22 01:21:00,70.6,67.2,29.80,SW,223,3.0,4.0,89,0.00,,---,0.00,VWS V14.01,2013-05-22 05:21:00,
2013-05-22 01:22:00,70.6,67.2,29.80,SW,223,0.0,4.0,89,0.00,,---,0.00,VWS V14.01,2013-05-22 05:22:00,
2013-05-22 01:26:00,70.6,67.2,29.80,SW,223,3.0,3.0,89,0.00,,---,0.00,VWS V14.01,2013-05-22 05:26:00,
2013-05-22 01:27:00,70.6,67.2,29.80,SW,223,2.0,3.0,89,0.00,,---,0.00,VWS V14.01,2013-05-22 05:27:00,
2013-05-22 01:31:00,70.4,67.0,29.80,SW,219,6.0,6.0,89,0.00,,---,0.00,VWS V14.01,2013-05-22 05:31:00,
2013-05-22 01:32:00,70.4,67.0,29.80,SW,219,7.0,7.0,89,0.00,,---,0.00,VWS V14.01,2013-05-22 05:32:00,
2013-05-22 01:33:00,70.4,67.0,29.79,SW,219,2.0,9.0,89,0.00,,---,0.00,VWS V14.01,2013-05-22 05:33:00,
2013-05-22 01:36:00,70.4,67.0,29.79,SW,219,0.0,0.0,89,0.00,,---,0.00,VWS V14.01,2013-05-22 05:36:00,
2013-05-22 01:37:00,70.4,67.0,29.79,SW,219,0.0,0.0,89,0.00,,---,0.00,VWS V14.01,2013-05-22 05:37:00,
2013-05-22 01:38:00,70.4,67.0,29.79,SW,219,0.0,0.0,89,0.00,,---,0.00,VWS V14.01,2013-05-22 05:38:00,
2013-05-22 01:41:00,70.3,66.9,29.79,SW,219,0.0,0.0,89,0.00,,---,0.00,VWS V14.01,2013-05-22 05:41:00,
2013-05-22 01:42:00,70.3,66.9,29.79,SW,219,0.0,1.0,89,0.00,,---,0.00,VWS V14.01,2013-05-22 05:42:00,
2013-05-22 01:43:00,70.3,66.9,29.79,SW,219,5.0,5.0,89,0.00,,---,0.00,VWS V14.01,2013-05-22 05:43:00,
2013-05-22 01:46:00,70.3,66.9,29.79,SW,226,3.0,6.0,89,0.00,,---,0.00,VWS V14.01,2013-05-22 05:46:00,
2013-05-22 01:47:00,70.3,66.9,29.79,SW,224,5.0,5.0,89,0.00,,---,0.00,VWS V14.01,2013-05-22 05:47:00,
2013-05-22 01:48:00,70.3,66.9,29.79,SSW,198,7.0,7.0,89,0.00,,---,0.00,VWS V14.01,2013-05-22 05:48:00,
2013-05-22 01:51:00,70.1,66.7,29.79,SW,214,0.0,0.0,89,0.00,,---,0.00,VWS V14.01,2013-05-22 05:51:00,
2013-05-22 01:52:00,70.1,66.7,29.79,SW,214,0.0,0.0,89,0.00,,---,0.00,VWS V14.01,2013-05-22 05:52:00,
2013-05-22 01:53:00,70.1,67.0,29.79,SW,214,0.0,0.0,90,0.00,,---,0.00,VWS V14.01,2013-05-22 05:53:00,
2013-05-22 01:56:00,70.1,67.0,29.79,SW,214,0.0,0.0,90,0.00,,---,0.00,VWS V14.01,2013-05-22 05:56:00,
2013-05-22 01:57:00,70.1,67.0,29.79,SW,214,0.0,0.0,90,0.00,,---,0.00,VWS V14.01,2013-05-22 05:57:00,
2013-05-22 01:58:00,70.1,67.0,29.79,SW,214,0.0,0.0,90,0.00,,---,0.00,VWS V14.01,2013-05-22 05:58:00,
2013-05-22 02:01:00,69.9,66.8,29.79,SW,214,0.0,0.0,90,0.00,,---,0.00,VWS V14.01,2013-05-22 06:01:00,
2013-05-22 02:02:00,69.9,66.8,29.78,SW,214,0.0,0.0,90,0.00,,---,0.00,VWS V14.01,2013-05-22 06:02:00,
2013-05-22 02:03:00,69.9,66.8,29.78,SW,214,0.0,0.0,90,0.00,,---,0.00,VWS V14.01,2013-05-22 06:03:00,
2013-05-22 02:06:00,69.9,66.8,29.78,SW,214,0.0,0.0,90,0.00,,---,0.00,VWS V14.01,2013-05-22 06:06:00,
2013-05-22 02:07:00,69.9,66.8,29.78,SW,214,0.0,0.0,90,0.00,,---,0.00,VWS V14.01,2013-05-22 06:07:00,
2013-05-22 02:08:00,69.8,66.7,29.78,SW,214,0.0,0.0,90,0.00,,---,0.00,VWS V14.01,2013-05-22 06:08:00,
2013-05-22 02:12:00,69.8,66.4,29.78,SW,214,0.0,0.0,89,0.00,,---,0.00,VWS V14.01,2013-05-22 06:12:00,
2013-05-22 02:13:00,69.8,66.4,29.78,SW,214,0.0,0.0,89,0.00,,---,0.00,VWS V14.01,2013-05-22 06:13:00,
2013-05-22 02:17:00,69.6,66.2,29.78,SW,214,0.0,0.0,89,0.00,,---,0.00,VWS V14.01,2013-05-22 06:17:00,
2013-05-22 02:18:00,69.6,66.2,29.78,SW,214,0.0,0.0,89,0.00,,---,0.00,VWS V14.01,2013-05-22 06:18:00,
2013-05-22 02:22:00,69.4,66.0,29.78,SW,214,0.0,0.0,89,0.00,,---,0.00,VWS V14.01,2013-05-22 06:22:00,
2013-05-22 02:23:00,69.4,66.0,29.78,SW,214,0.0,1.0,89,0.00,,---,0.00,VWS V14.01,2013-05-22 06:23:00,
2013-05-22 02:27:00,69.3,65.9,29.78,SW,214,0.0,0.0,89,0.00,,---,0.00,VWS V14.01,2013-05-22 06:27:00,
2013-05-22 02:28:00,69.3,65.9,29.78,SW,214,0.0,0.0,89,0.00,,---,0.00,VWS V14.01,2013-05-22 06:28:00,
2013-05-22 02:32:00,69.1,65.7,29.79,SW,214,0.0,0.0,89,0.00,,---,0.00,VWS V14.01,2013-05-22 06:32:00,
2013-05-22 02:33:00,69.1,65.7,29.79,SW,214,0.0,0.0,89,0.00,,---,0.00,VWS V14.01,2013-05-22 06:33:00,
2013-05-22 02:37:00,68.9,65.5,29.79,SW,214,1.0,3.0,89,0.00,,---,0.00,VWS V14.01,2013-05-22 06:37:00,
2013-05-22 02:38:00,68.9,65.8,29.79,SW,216,4.0,4.0,90,0.00,,---,0.00,VWS V14.01,2013-05-22 06:38:00,
2013-05-22 02:39:00,68.9,65.8,29.79,WSW,237,2.0,7.0,90,0.00,,---,0.00,VWS V14.01,2013-05-22 06:39:00,
2013-05-22 02:42:00,68.8,65.8,29.79,SW,232,5.0,5.0,90,0.00,,---,0.00,VWS V14.01,2013-05-22 06:42:00,
2013-05-22 02:43:00,68.8,65.8,29.79,SW,232,3.0,3.0,90,0.00,,---,0.00,VWS V14.01,2013-05-22 06:43:00,
2013-05-22 02:44:00,68.8,65.8,29.79,SW,232,0.0,3.0,90,0.00,,---,0.00,VWS V14.01,2013-05-22 06:44:00,
2013-05-22 02:47:00,68.8,65.8,29.79,SW,232,2.0,2.0,90,0.00,,---,0.00,VWS V14.01,2013-05-22 06:47:00,
2013-05-22 02:48:00,68.8,65.8,29.80,SW,232,2.0,2.0,90,0.00,,---,0.00,VWS V14.01,2013-05-22 06:48:00,
2013-05-22 02:49:00,68.6,65.6,29.80,SW,232,0.0,2.0,90,0.00,,---,0.00,VWS V14.01,2013-05-22 06:49:00,
2013-05-22 02:52:00,68.6,65.9,29.80,SW,232,0.0,0.0,91,0.00,,---,0.00,VWS V14.01,2013-05-22 06:52:00,
2013-05-22 02:53:00,68.6,65.9,29.80,SW,232,0.0,0.0,91,0.00,,---,0.00,VWS V14.01,2013-05-22 06:53:00,
2013-05-22 02:54:00,68.6,65.9,29.80,SW,232,0.0,0.0,91,0.00,,---,0.00,VWS V14.01,2013-05-22 06:54:00,
2013-05-22 02:57:00,68.6,65.9,29.80,SW,232,2.0,2.0,91,0.00,,---,0.00,VWS V14.01,2013-05-22 06:57:00,
2013-05-22 02:58:00,68.6,65.9,29.80,SW,232,1.0,2.0,91,0.00,,---,0.00,VWS V14.01,2013-05-22 06:58:00,
2013-05-22 02:59:00,68.6,65.9,29.80,SW,232,0.0,0.0,91,0.00,,---,0.00,VWS V14.01,2013-05-22 06:59:00,
2013-05-22 03:02:00,68.6,65.9,29.79,SW,232,0.0,0.0,91,0.00,,---,0.00,VWS V14.01,2013-05-22 07:02:00,
2013-05-22 03:03:00,68.6,65.9,29.79,SW,232,1.0,1.0,91,0.00,,---,0.00,VWS V14.01,2013-05-22 07:03:00,
2013-05-22 03:04:00,68.6,65.9,29.79,SW,232,0.0,0.0,91,0.00,,---,0.00,VWS V14.01,2013-05-22 07:04:00,
2013-05-22 03:07:00,68.4,65.7,29.79,SW,232,0.0,0.0,91,0.00,,---,0.00,VWS V14.01,2013-05-22 07:07:00,
2013-05-22 03:08:00,68.4,65.7,29.79,SW,232,0.0,0.0,91,0.00,,---,0.00,VWS V14.01,2013-05-22 07:08:00,
2013-05-22 03:09:00,68.4,65.7,29.79,SW,232,0.0,0.0,91,0.00,,---,0.00,VWS V14.01,2013-05-22 07:09:00,
2013-05-22 03:12:00,68.4,65.7,29.79,SW,228,0.0,1.0,91,0.00,,---,0.00,VWS V14.01,2013-05-22 07:12:00,
2013-05-22 03:13:00,68.4,65.7,29.79,SW,228,1.0,2.0,91,0.00,,---,0.00,VWS V14.01,2013-05-22 07:13:00,
2013-05-22 03:14:00,68.4,65.7,29.79,SW,228,0.0,0.0,91,0.00,,---,0.00,VWS V14.01,2013-05-22 07:14:00,
2013-05-22 03:17:00,68.3,65.6,29.79,SW,228,0.0,0.0,91,0.00,,---,0.00,VWS V14.01,2013-05-22 07:17:00,
2013-05-22 03:18:00,68.3,65.6,29.79,SW,228,0.0,0.0,91,0.00,,---,0.00,VWS V14.01,2013-05-22 07:18:00,
2013-05-22 03:19:00,68.3,65.6,29.79,SW,228,0.0,0.0,91,0.00,,---,0.00,VWS V14.01,2013-05-22 07:19:00,
2013-05-22 03:22:00,68.1,65.4,29.79,SW,228,0.0,0.0,91,0.00,,---,0.00,VWS V14.01,2013-05-22 07:22:00,
2013-05-22 03:23:00,68.1,65.4,29.79,SW,228,0.0,0.0,91,0.00,,---,0.00,VWS V14.01,2013-05-22 07:23:00,
2013-05-22 03:24:00,68.1,65.4,29.79,SW,228,0.0,0.0,91,0.00,,---,0.00,VWS V14.01,2013-05-22 07:24:00,
2013-05-22 03:27:00,68.1,65.4,29.79,SW,228,0.0,0.0,91,0.00,,---,0.00,VWS V14.01,2013-05-22 07:27:00,
2013-05-22 03:28:00,67.9,65.2,29.79,SW,228,0.0,0.0,91,0.00,,---,0.00,VWS V14.01,2013-05-22 07:28:00,
2013-05-22 03:29:00,67.9,65.2,29.79,SW,228,0.0,1.0,91,0.00,,---,0.00,VWS V14.01,2013-05-22 07:29:00,
2013-05-22 03:32:00,67.9,65.2,29.78,SW,228,3.0,4.0,91,0.00,,---,0.00,VWS V14.01,2013-05-22 07:32:00,
2013-05-22 03:33:00,67.8,65.1,29.78,SW,228,0.0,1.0,91,0.00,,---,0.00,VWS V14.01,2013-05-22 07:33:00,
2013-05-22 03:34:00,67.8,65.1,29.78,SW,228,0.0,1.0,91,0.00,,---,0.00,VWS V14.01,2013-05-22 07:34:00,
2013-05-22 03:37:00,67.6,64.6,29.78,SW,231,0.0,0.0,90,0.00,,---,0.00,VWS V14.01,2013-05-22 07:37:00,
2013-05-22 03:38:00,67.6,64.6,29.78,SW,231,0.0,0.0,90,0.00,,---,0.00,VWS V14.01,2013-05-22 07:38:00,
2013-05-22 03:39:00,67.6,64.6,29.78,SW,231,1.0,1.0,90,0.00,,---,0.00,VWS V14.01,2013-05-22 07:39:00,
2013-05-22 03:42:00,67.4,64.4,29.78,SW,230,0.0,4.0,90,0.00,,---,0.00,VWS V14.01,2013-05-22 07:42:00,
2013-05-22 03:43:00,67.4,64.4,29.78,SW,230,0.0,0.0,90,0.00,,---,0.00,VWS V14.01,2013-05-22 07:43:00,
2013-05-22 03:44:00,67.4,64.4,29.78,SW,230,0.0,0.0,90,0.00,,---,0.00,VWS V14.01,2013-05-22 07:44:00,
2013-05-22 03:47:00,67.3,64.3,29.78,SW,230,1.0,1.0,90,0.00,,---,0.00,VWS V14.01,2013-05-22 07:47:00,
2013-05-22 03:48:00,67.3,64.3,29.78,SW,230,0.0,3.0,90,0.00,,---,0.00,VWS V14.01,2013-05-22 07:48:00,
2013-05-22 03:49:00,67.3,64.3,29.78,SW,230,0.0,0.0,90,0.00,,---,0.00,VWS V14.01,2013-05-22 07:49:00,
2013-05-22 03:52:00,67.3,64.3,29.78,SW,230,0.0,1.0,90,0.00,,---,0.00,VWS V14.01,2013-05-22 07:52:00,
2013-05-22 03:53:00,67.3,64.3,29.78,SW,231,1.0,1.0,90,0.00,,---,0.00,VWS V14.01,2013-05-22 07:53:00,
2013-05-22 03:54:00,67.3,64.3,29.78,SW,230,3.0,3.0,90,0.00,,---,0.00,VWS V14.01,2013-05-22 07:54:00,
2013-05-22 03:58:00,67.1,64.1,29.78,SW,230,0.0,0.0,90,0.00,,---,0.00,VWS V14.01,2013-05-22 07:58:00,
2013-05-22 03:59:00,67.1,64.1,29.78,SW,230,0.0,0.0,90,0.00,,---,0.00,VWS V14.01,2013-05-22 07:59:00,
2013-05-22 04:00:00,67.1,64.1,29.78,SW,230,0.0,0.0,90,0.00,,---,0.00,VWS V14.01,2013-05-22 08:00:00,
2013-05-22 04:03:00,67.1,64.1,29.78,SW,230,1.0,3.0,90,0.00,,---,0.00,VWS V14.01,2013-05-22 08:03:00,
2013-05-22 04:04:00,67.1,64.1,29.78,SW,230,0.0,1.0,90,0.00,,---,0.00,VWS V14.01,2013-05-22 08:04:00,
2013-05-22 04:08:00,66.9,63.9,29.78,SW,228,0.0,0.0,90,0.00,,---,0.00,VWS V14.01,2013-05-22 08:08:00,
2013-05-22 04:09:00,66.9,63.9,29.78,SW,228,0.0,0.0,90,0.00,,---,0.00,VWS V14.01,2013-05-22 08:09:00,
2013-05-22 04:13:00,66.8,63.8,29.78,SW,228,0.0,0.0,90,0.00,,---,0.00,VWS V14.01,2013-05-22 08:13:00,
2013-05-22 04:14:00,66.8,63.8,29.78,SW,228,0.0,0.0,90,0.00,,---,0.00,VWS V14.01,2013-05-22 08:14:00,
2013-05-22 04:18:00,66.8,63.8,29.77,SW,228,0.0,0.0,90,0.00,,---,0.00,VWS V14.01,2013-05-22 08:18:00,
2013-05-22 04:19:00,66.8,63.8,29.77,SW,228,1.0,1.0,90,0.00,,---,0.00,VWS V14.01,2013-05-22 08:19:00,
2013-05-22 04:23:00,66.6,63.6,29.77,SW,228,0.0,0.0,90,0.00,,---,0.00,VWS V14.01,2013-05-22 08:23:00,
2013-05-22 04:24:00,66.6,63.6,29.77,SW,228,0.0,0.0,90,0.00,,---,0.00,VWS V14.01,2013-05-22 08:24:00,
2013-05-22 04:28:00,66.4,63.4,29.77,SW,228,0.0,0.0,90,0.00,,---,0.00,VWS V14.01,2013-05-22 08:28:00,
2013-05-22 04:29:00,66.4,63.4,29.77,SW,228,0.0,0.0,90,0.00,,---,0.00,VWS V14.01,2013-05-22 08:29:00,
2013-05-22 04:33:00,66.4,63.4,29.78,SW,228,0.0,0.0,90,0.00,,---,0.00,VWS V14.01,2013-05-22 08:33:00,
2013-05-22 04:34:00,66.4,63.4,29.78,SW,228,0.0,0.0,90,0.00,,---,0.00,VWS V14.01,2013-05-22 08:34:00,
2013-05-22 04:35:00,66.3,63.3,29.78,SW,228,0.0,0.0,90,0.00,,---,0.00,VWS V14.01,2013-05-22 08:35:00,
2013-05-22 04:38:00,66.3,63.3,29.78,SW,228,2.0,2.0,90,0.00,,---,0.00,VWS V14.01,2013-05-22 08:38:00,
2013-05-22 04:39:00,66.3,63.3,29.78,SW,228,2.0,2.0,90,0.00,,---,0.00,VWS V14.01,2013-05-22 08:39:00,
2013-05-22 04:40:00,66.3,63.3,29.78,SW,228,0.0,3.0,90,0.00,,---,0.00,VWS V14.01,2013-05-22 08:40:00,
2013-05-22 04:44:00,66.1,63.4,29.78,SW,228,3.0,3.0,91,0.00,,---,0.00,VWS V14.01,2013-05-22 08:44:00,
2013-05-22 04:45:00,66.1,63.4,29.78,SW,228,2.0,3.0,91,0.00,,---,0.00,VWS V14.01,2013-05-22 08:45:00,
2013-05-22 04:48:00,66.1,63.4,29.78,SW,228,3.0,3.0,91,0.00,,---,0.00,VWS V14.01,2013-05-22 08:48:00,
2013-05-22 04:49:00,66.1,63.4,29.78,SW,228,5.0,5.0,91,0.00,,---,0.00,VWS V14.01,2013-05-22 08:49:00,
2013-05-22 04:50:00,66.0,63.3,29.78,SW,228,1.0,5.0,91,0.00,,---,0.00,VWS V14.01,2013-05-22 08:50:00,
2013-05-22 04:54:00,66.0,63.3,29.78,WSW,241,0.0,2.0,91,0.00,,---,0.00,VWS V14.01,2013-05-22 08:54:00,
2013-05-22 04:55:00,66.0,63.3,29.78,WSW,241,2.0,2.0,91,0.00,,---,0.00,VWS V14.01,2013-05-22 08:55:00,
2013-05-22 04:59:00,66.0,63.3,29.78,WSW,241,0.0,0.0,91,0.00,,---,0.00,VWS V14.01,2013-05-22 08:59:00,
2013-05-22 05:00:00,65.8,63.1,29.78,WSW,241,0.0,0.0,91,0.00,,---,0.00,VWS V14.01,2013-05-22 09:00:00,
2013-05-22 05:04:00,65.8,63.1,29.79,WSW,241,0.0,0.0,91,0.00,,---,0.00,VWS V14.01,2013-05-22 09:04:00,
2013-05-22 05:05:00,65.8,63.1,29.79,WSW,241,0.0,0.0,91,0.00,,---,0.00,VWS V14.01,2013-05-22 09:05:00,
2013-05-22 05:09:00,65.6,62.9,29.79,WSW,241,0.0,0.0,91,0.00,,---,0.00,VWS V14.01,2013-05-22 09:09:00,
2013-05-22 05:10:00,65.6,62.9,29.79,WSW,241,0.0,0.0,91,0.00,,---,0.00,VWS V14.01,2013-05-22 09:10:00,
2013-05-22 05:14:00,65.6,62.9,29.79,WSW,241,0.0,1.0,91,0.00,,---,0.00,VWS V14.01,2013-05-22 09:14:00,
2013-05-22 05:15:00,65.5,62.8,29.79,WSW,241,0.0,1.0,91,0.00,,---,0.00,VWS V14.01,2013-05-22 09:15:00,
2013-05-22 05:19:00,65.5,62.8,29.79,WSW,241,0.0,0.0,91,0.00,,---,0.00,VWS V14.01,2013-05-22 09:19:00,
2013-05-22 05:20:00,65.5,62.8,29.79,WSW,241,0.0,0.0,91,0.00,,---,0.00,VWS V14.01,2013-05-22 09:20:00,
2013-05-22 05:24:00,65.3,62.6,29.79,WSW,241,0.0,0.0,91,0.00,,---,0.00,VWS V14.01,2013-05-22 09:24:00,
2013-05-22 05:25:00,65.3,62.6,29.79,WSW,241,0.0,0.0,91,0.00,,---,0.00,VWS V14.01,2013-05-22 09:25:00,
2013-05-22 05:29:00,65.2,62.5,29.79,WSW,241,0.0,0.0,91,0.00,,---,0.00,VWS V14.01,2013-05-22 09:29:00,
2013-05-22 05:30:00,65.2,62.5,29.79,WSW,241,0.0,0.0,91,0.00,,---,0.00,VWS V14.01,2013-05-22 09:30:00,
2013-05-22 05:34:00,65.0,62.3,29.80,WSW,241,0.0,0.0,91,0.00,,---,0.00,VWS V14.01,2013-05-22 09:34:00,
2013-05-22 05:35:00,65.0,62.3,29.80,WSW,241,0.0,0.0,91,0.00,,---,0.00,VWS V14.01,2013-05-22 09:35:00,
2013-05-22 05:39:00,64.8,62.1,29.80,WSW,241,0.0,0.0,91,0.00,,---,0.00,VWS V14.01,2013-05-22 09:39:00,
2013-05-22 05:40:00,64.8,62.1,29.80,WSW,241,0.0,0.0,91,0.00,,---,0.00,VWS V14.01,2013-05-22 09:40:00,
2013-05-22 05:44:00,64.7,62.0,29.80,WSW,241,0.0,0.0,91,0.00,,---,0.00,VWS V14.01,2013-05-22 09:44:00,
2013-05-22 05:45:00,64.7,62.0,29.80,WSW,241,0.0,0.0,91,0.00,,---,0.00,VWS V14.01,2013-05-22 09:45:00,
2013-05-22 05:49:00,64.5,61.8,29.80,WSW,241,0.0,0.0,91,0.00,,---,0.00,VWS V14.01,2013-05-22 09:49:00,
2013-05-22 05:50:00,64.5,61.8,29.80,WSW,241,0.0,0.0,91,0.00,,---,0.00,VWS V14.01,2013-05-22 09:50:00,
2013-05-22 05:54:00,64.5,61.8,29.80,WSW,241,0.0,0.0,91,0.00,,---,0.00,VWS V14.01,2013-05-22 09:54:00,
2013-05-22 05:55:00,64.3,61.6,29.80,WSW,241,0.0,0.0,91,0.00,,---,0.00,VWS V14.01,2013-05-22 09:55:00,
2013-05-22 05:59:00,64.3,61.6,29.80,WSW,241,0.0,1.0,91,0.00,,---,0.00,VWS V14.01,2013-05-22 09:59:00,
2013-05-22 06:00:00,64.3,61.6,29.80,WSW,241,0.0,1.0,91,0.00,,---,0.00,VWS V14.01,2013-05-22 10:00:00,
2013-05-22 06:04:00,64.2,61.5,29.81,WSW,241,0.0,0.0,91,0.00,,---,0.00,VWS V14.01,2013-05-22 10:04:00,
2013-05-22 06:05:00,64.2,61.5,29.81,WSW,241,0.0,0.0,91,0.00,,---,0.00,VWS V14.01,2013-05-22 10:05:00,
2013-05-22 06:09:00,64.0,61.6,29.81,WSW,241,0.0,0.0,92,0.00,,---,0.00,VWS V14.01,2013-05-22 10:09:00,
2013-05-22 06:10:00,64.0,61.6,29.81,WSW,241,0.0,0.0,92,0.00,,---,0.00,VWS V14.01,2013-05-22 10:10:00,
2013-05-22 06:14:00,63.9,61.5,29.81,WSW,241,0.0,0.0,92,0.00,,---,0.00,VWS V14.01,2013-05-22 10:14:00,
2013-05-22 06:15:00,63.9,61.5,29.81,WSW,241,0.0,0.0,92,0.00,,---,0.00,VWS V14.01,2013-05-22 10:15:00,
2013-05-22 06:19:00,63.7,61.3,29.82,WSW,241,0.0,0.0,92,0.00,,---,0.00,VWS V14.01,2013-05-22 10:19:00,
2013-05-22 06:20:00,63.7,61.3,29.82,WSW,241,0.0,0.0,92,0.00,,---,0.00,VWS V14.01,2013-05-22 10:20:00,
2013-05-22 06:24:00,63.7,61.3,29.82,WSW,241,0.0,0.0,92,0.00,,---,0.00,VWS V14.01,2013-05-22 10:24:00,
2013-05-22 06:25:00,63.7,61.3,29.82,WSW,241,0.0,0.0,92,0.00,,---,0.00,VWS V14.01,2013-05-22 10:25:00,
2013-05-22 06:30:00,63.7,61.3,29.82,WSW,241,0.0,0.0,92,0.00,,---,0.00,VWS V14.01,2013-05-22 10:30:00,
2013-05-22 06:35:00,63.7,61.6,29.82,WSW,241,0.0,0.0,93,0.00,,---,0.00,VWS V14.01,2013-05-22 10:35:00,
2013-05-22 06:36:00,63.7,61.6,29.82,WSW,241,0.0,0.0,93,0.00,,---,0.00,VWS V14.01,2013-05-22 10:36:00,
2013-05-22 06:40:00,63.9,61.8,29.82,WSW,241,0.0,0.0,93,0.00,,---,0.00,VWS V14.01,2013-05-22 10:40:00,
2013-05-22 06:41:00,63.9,61.8,29.82,WSW,241,0.0,0.0,93,0.00,,---,0.00,VWS V14.01,2013-05-22 10:41:00,
2013-05-22 06:45:00,63.9,62.1,29.82,SSE,148,0.0,0.0,94,0.00,,---,0.00,VWS V14.01,2013-05-22 10:45:00,
2013-05-22 06:46:00,63.9,62.1,29.82,SSE,148,0.0,0.0,94,0.00,,---,0.00,VWS V14.01,2013-05-22 10:46:00,
2013-05-22 06:50:00,64.2,62.4,29.83,SSE,148,0.0,0.0,94,0.00,,---,0.00,VWS V14.01,2013-05-22 10:50:00,
2013-05-22 06:51:00,64.2,62.4,29.83,SSE,167,2.0,3.0,94,0.00,,---,0.00,VWS V14.01,2013-05-22 10:51:00,
2013-05-22 06:55:00,64.3,62.8,29.83,SSE,167,0.0,0.0,95,0.00,,---,0.00,VWS V14.01,2013-05-22 10:55:00,
2013-05-22 06:56:00,64.5,63.0,29.83,SSE,167,0.0,0.0,95,0.00,,---,0.00,VWS V14.01,2013-05-22 10:56:00,
2013-05-22 07:00:00,64.8,63.6,29.83,SSE,167,0.0,0.0,96,0.00,,---,0.00,VWS V14.01,2013-05-22 11:00:00,
2013-05-22 07:01:00,64.8,63.6,29.83,SSE,167,0.0,0.0,96,0.00,,---,0.00,VWS V14.01,2013-05-22 11:01:00,
2013-05-22 07:05:00,65.2,64.0,29.83,SSE,167,0.0,0.0,96,0.00,,---,0.00,VWS V14.01,2013-05-22 11:05:00,
2013-05-22 07:06:00,65.3,64.1,29.83,SSE,167,0.0,0.0,96,0.00,,---,0.00,VWS V14.01,2013-05-22 11:06:00,
2013-05-22 07:10:00,65.6,64.4,29.83,SSE,167,0.0,0.0,96,0.00,,---,0.00,VWS V14.01,2013-05-22 11:10:00,
2013-05-22 07:11:00,65.8,64.6,29.83,SSE,167,0.0,0.0,96,0.00,,---,0.00,VWS V14.01,2013-05-22 11:11:00,
2013-05-22 07:15:00,66.3,65.1,29.83,SSE,167,0.0,0.0,96,0.00,,---,0.00,VWS V14.01,2013-05-22 11:15:00,
2013-05-22 07:16:00,66.4,65.5,29.83,SSE,167,0.0,0.0,97,0.00,,---,0.00,VWS V14.01,2013-05-22 11:16:00,
2013-05-22 07:20:00,67.1,66.2,29.84,SSE,167,0.0,0.0,97,0.00,,---,0.00,VWS V14.01,2013-05-22 11:20:00,
2013-05-22 07:21:00,67.3,66.4,29.84,SSE,167,0.0,0.0,97,0.00,,---,0.00,VWS V14.01,2013-05-22 11:21:00,
2013-05-22 07:25:00,67.8,66.9,29.84,SSE,167,1.0,1.0,97,0.00,,---,0.00,VWS V14.01,2013-05-22 11:25:00,
2013-05-22 07:26:00,67.9,67.0,29.84,SSE,167,0.0,1.0,97,0.00,,---,0.00,VWS V14.01,2013-05-22 11:26:00,
2013-05-22 07:30:00,68.4,67.5,29.84,SSE,167,2.0,4.0,97,0.00,,---,0.00,VWS V14.01,2013-05-22 11:30:00,
2013-05-22 07:31:00,68.6,67.7,29.84,SSE,167,0.0,4.0,97,0.00,,---,0.00,VWS V14.01,2013-05-22 11:31:00,
2013-05-22 07:35:00,68.9,67.7,29.84,SSW,199,4.0,4.0,96,0.00,,---,0.00,VWS V14.01,2013-05-22 11:35:00,
2013-05-22 07:36:00,69.1,67.9,29.84,SSW,202,5.0,5.0,96,0.00,,---,0.00,VWS V14.01,2013-05-22 11:36:00,
2013-05-22 07:37:00,69.1,67.9,29.84,SSW,192,9.0,9.0,96,0.00,,---,0.00,VWS V14.01,2013-05-22 11:37:00,
2013-05-22 07:40:00,69.6,68.4,29.84,SSW,200,2.0,2.0,96,0.00,,---,0.00,VWS V14.01,2013-05-22 11:40:00,
2013-05-22 07:41:00,69.8,68.3,29.84,SSW,200,0.0,3.0,95,0.00,,---,0.00,VWS V14.01,2013-05-22 11:41:00,
2013-05-22 07:42:00,69.9,68.4,29.84,South,188,1.0,1.0,95,0.00,,---,0.00,VWS V14.01,2013-05-22 11:42:00,
2013-05-22 07:45:00,70.1,68.3,29.84,SSW,209,0.0,5.0,94,0.00,,---,0.00,VWS V14.01,2013-05-22 11:45:00,
2013-05-22 07:46:00,70.3,68.5,29.84,SSW,209,2.0,2.0,94,0.00,,---,0.00,VWS V14.01,2013-05-22 11:46:00,
2013-05-22 07:47:00,70.3,68.5,29.84,SSW,209,0.0,2.0,94,0.00,,---,0.00,VWS V14.01,2013-05-22 11:47:00,
2013-05-22 07:50:00,70.8,68.7,29.84,SSW,209,5.0,5.0,93,0.00,,---,0.00,VWS V14.01,2013-05-22 11:50:00,
2013-05-22 07:51:00,70.9,68.5,29.84,SSW,210,4.0,5.0,92,0.00,,---,0.00,VWS V14.01,2013-05-22 11:51:00,
2013-05-22 07:52:00,70.9,68.5,29.84,SW,214,4.0,5.0,92,0.00,,---,0.00,VWS V14.01,2013-05-22 11:52:00,
2013-05-22 07:56:00,71.3,68.2,29.84,SSW,202,1.0,4.0,90,0.00,,---,0.00,VWS V14.01,2013-05-22 11:56:00,
2013-05-22 07:57:00,71.3,67.9,29.84,SSW,202,5.0,5.0,89,0.00,,---,0.00,VWS V14.01,2013-05-22 11:57:00,
2013-05-22 08:01:00,71.8,67.7,29.84,SSW,200,0.0,0.0,87,0.00,,---,0.00,VWS V14.01,2013-05-22 12:01:00,
2013-05-22 08:02:00,71.8,67.4,29.84,SSW,194,0.0,0.0,86,0.00,,---,0.00,VWS V14.01,2013-05-22 12:02:00,
2013-05-22 08:06:00,72.5,68.1,29.84,SSW,207,4.0,4.0,86,0.00,,---,0.00,VWS V14.01,2013-05-22 12:06:00,
2013-05-22 08:07:00,72.7,67.9,29.84,SSW,194,1.0,4.0,85,0.00,,---,0.00,VWS V14.01,2013-05-22 12:07:00,
2013-05-22 08:11:00,73.3,68.5,29.84,SW,215,2.0,3.0,85,0.00,,---,0.00,VWS V14.01,2013-05-22 12:11:00,
2013-05-22 08:12:00,73.5,68.4,29.84,SSW,211,3.0,6.0,84,0.00,,---,0.00,VWS V14.01,2013-05-22 12:12:00,
2013-05-22 08:16:00,74.0,68.2,29.84,SSW,206,3.0,5.0,82,0.00,,---,0.00,VWS V14.01,2013-05-22 12:16:00,
2013-05-22 08:17:00,74.0,67.8,29.84,SSW,209,0.0,1.0,81,0.00,,---,0.00,VWS V14.01,2013-05-22 12:17:00,
2013-05-22 08:21:00,74.6,67.7,29.84,SSW,208,1.0,4.0,79,0.00,,---,0.00,VWS V14.01,2013-05-22 12:21:00,
2013-05-22 08:22:00,74.6,67.7,29.84,SSW,208,3.0,3.0,79,0.00,,---,0.00,VWS V14.01,2013-05-22 12:22:00,
2013-05-22 08:26:00,75.6,68.6,29.84,SW,214,0.0,3.0,79,0.00,,---,0.00,VWS V14.01,2013-05-22 12:26:00,
2013-05-22 08:27:00,75.6,68.6,29.84,SW,214,2.0,3.0,79,0.00,,---,0.00,VWS V14.01,2013-05-22 12:27:00,
2013-05-22 08:31:00,76.1,68.0,29.84,SW,216,0.0,1.0,76,0.00,,---,0.00,VWS V14.01,2013-05-22 12:31:00,
2013-05-22 08:32:00,76.3,68.2,29.84,SW,216,0.0,1.0,76,0.00,,---,0.00,VWS V14.01,2013-05-22 12:32:00,
2013-05-22 08:36:00,76.8,67.9,29.84,SW,216,1.0,1.0,74,0.00,,---,0.00,VWS V14.01,2013-05-22 12:36:00,
2013-05-22 08:37:00,76.8,67.9,29.84,SW,216,0.0,1.0,74,0.00,,---,0.00,VWS V14.01,2013-05-22 12:37:00,
2013-05-22 08:41:00,77.4,67.7,29.84,SW,236,3.0,3.0,72,0.00,,---,0.00,VWS V14.01,2013-05-22 12:41:00,
2013-05-22 08:42:00,77.4,67.7,29.84,SW,234,3.0,4.0,72,0.00,,---,0.00,VWS V14.01,2013-05-22 12:42:00,
2013-05-22 08:46:00,78.1,66.7,29.84,SW,217,2.0,6.0,68,0.00,,---,0.00,VWS V14.01,2013-05-22 12:46:00,
2013-05-22 08:47:00,78.1,66.7,29.85,SW,217,0.0,1.0,68,0.00,,---,0.00,VWS V14.01,2013-05-22 12:47:00,
2013-05-22 08:48:00,78.1,66.7,29.85,SW,217,2.0,3.0,68,0.00,,---,0.00,VWS V14.01,2013-05-22 12:48:00,
2013-05-22 08:51:00,78.6,67.2,29.85,SW,216,1.0,1.0,68,0.00,,---,0.00,VWS V14.01,2013-05-22 12:51:00,
2013-05-22 08:52:00,78.8,67.8,29.85,SW,216,0.0,1.0,69,0.00,,---,0.00,VWS V14.01,2013-05-22 12:52:00,
2013-05-22 08:53:00,79.0,68.8,29.85,SW,216,0.0,1.0,71,0.00,,---,0.00,VWS V14.01,2013-05-22 12:53:00,
2013-05-22 08:56:00,79.6,68.5,29.85,SW,216,1.0,3.0,69,0.00,,---,0.00,VWS V14.01,2013-05-22 12:56:00,
2013-05-22 08:57:00,79.6,68.1,29.85,SW,220,3.0,3.0,68,0.00,,---,0.00,VWS V14.01,2013-05-22 12:57:00,
2013-05-22 08:58:00,79.8,68.3,29.85,SW,221,0.0,3.0,68,0.00,,---,0.00,VWS V14.01,2013-05-22 12:58:00,
2013-05-22 09:01:00,80.3,69.2,29.85,SW,220,0.0,4.0,69,0.00,,---,0.00,VWS V14.01,2013-05-22 13:01:00,
2013-05-22 09:02:00,80.3,69.6,29.84,SW,220,1.0,1.0,70,0.00,,---,0.00,VWS V14.01,2013-05-22 13:02:00,
2013-05-22 09:03:00,80.3,69.2,29.84,SW,220,3.0,3.0,69,0.00,,---,0.00,VWS V14.01,2013-05-22 13:03:00,
2013-05-22 09:06:00,80.9,69.4,29.84,SW,221,4.0,4.0,68,0.00,,---,0.00,VWS V14.01,2013-05-22 13:06:00,
2013-05-22 09:07:00,81.1,69.6,29.84,SW,228,4.0,4.0,68,0.00,,---,0.00,VWS V14.01,2013-05-22 13:07:00,
2013-05-22 09:08:00,81.1,68.7,29.84,SW,228,0.0,4.0,66,0.00,,---,0.00,VWS V14.01,2013-05-22 13:08:00,
2013-05-22 09:11:00,81.6,68.7,29.84,SW,214,0.0,8.0,65,0.00,,---,0.00,VWS V14.01,2013-05-22 13:11:00,
2013-05-22 09:12:00,81.6,68.7,29.84,SW,215,5.0,6.0,65,0.00,,---,0.00,VWS V14.01,2013-05-22 13:12:00,
2013-05-22 09:13:00,81.8,68.4,29.84,WSW,240,1.0,1.0,64,0.00,,---,0.00,VWS V14.01,2013-05-22 13:13:00,
2013-05-22 09:16:00,82.2,68.4,29.84,South,191,0.0,7.0,63,0.00,,---,0.00,VWS V14.01,2013-05-22 13:16:00,
2013-05-22 09:17:00,82.2,68.4,29.85,South,191,0.0,0.0,63,0.00,,---,0.00,VWS V14.01,2013-05-22 13:17:00,
2013-05-22 09:18:00,82.2,68.4,29.85,WSW,237,3.0,6.0,63,0.00,,---,0.00,VWS V14.01,2013-05-22 13:18:00,
2013-05-22 09:21:00,82.4,68.1,29.85,SW,236,0.0,3.0,62,0.00,,---,0.00,VWS V14.01,2013-05-22 13:21:00,
2013-05-22 09:22:00,82.4,68.1,29.85,SW,236,0.0,0.0,62,0.00,,---,0.00,VWS V14.01,2013-05-22 13:22:00,
2013-05-22 09:23:00,82.4,67.6,29.85,SW,236,0.0,0.0,61,0.00,,---,0.00,VWS V14.01,2013-05-22 13:23:00,
2013-05-22 09:26:00,82.2,68.4,29.85,SW,236,0.0,0.0,63,0.00,,---,0.00,VWS V14.01,2013-05-22 13:26:00,
2013-05-22 09:27:00,82.2,68.4,29.85,SW,236,0.0,0.0,63,0.00,,---,0.00,VWS V14.01,2013-05-22 13:27:00,
2013-05-22 09:28:00,82.2,68.4,29.85,SW,229,5.0,5.0,63,0.00,,---,0.00,VWS V14.01,2013-05-22 13:28:00,
2013-05-22 09:32:00,82.2,69.3,29.85,SW,224,4.0,4.0,65,0.00,,---,0.00,VWS V14.01,2013-05-22 13:32:00,
2013-05-22 09:33:00,82.0,68.2,29.85,SSW,202,3.0,7.0,63,0.00,,---,0.00,VWS V14.01,2013-05-22 13:33:00,
2013-05-22 09:37:00,82.0,68.2,29.85,SW,217,5.0,5.0,63,0.00,,---,0.00,VWS V14.01,2013-05-22 13:37:00,
2013-05-22 09:38:00,82.0,68.6,29.85,SW,223,5.0,5.0,64,0.00,,---,0.00,VWS V14.01,2013-05-22 13:38:00,
2013-05-22 09:42:00,81.8,68.4,29.85,SW,232,0.0,2.0,64,0.00,,---,0.00,VWS V14.01,2013-05-22 13:42:00,
2013-05-22 09:43:00,81.8,68.9,29.85,SW,232,0.0,4.0,65,0.00,,---,0.00,VWS V14.01,2013-05-22 13:43:00,
2013-05-22 09:47:00,81.6,67.8,29.85,SW,214,4.0,4.0,63,0.00,,---,0.00,VWS V14.01,2013-05-22 13:47:00,
2013-05-22 09:48:00,81.6,67.3,29.85,SW,214,0.0,4.0,62,0.00,,---,0.00,VWS V14.01,2013-05-22 13:48:00,
2013-05-22 09:52:00,81.4,67.1,29.85,SW,215,0.0,2.0,62,0.00,,---,0.00,VWS V14.01,2013-05-22 13:52:00,
2013-05-22 09:53:00,81.4,67.6,29.85,SW,215,2.0,3.0,63,0.00,,---,0.00,VWS V14.01,2013-05-22 13:53:00,
2013-05-22 09:57:00,81.2,67.4,29.85,SSW,208,3.0,4.0,63,0.00,,---,0.00,VWS V14.01,2013-05-22 13:57:00,
2013-05-22 09:58:00,81.2,68.3,29.85,SSW,208,0.0,4.0,65,0.00,,---,0.00,VWS V14.01,2013-05-22 13:58:00,
2013-05-22 10:02:00,80.9,66.7,29.85,SSW,208,1.0,1.0,62,0.00,,---,0.00,VWS V14.01,2013-05-22 14:02:00,
2013-05-22 10:03:00,80.9,67.1,29.85,SSW,208,4.0,4.0,63,0.00,,---,0.00,VWS V14.01,2013-05-22 14:03:00,
2013-05-22 10:04:00,80.7,66.9,29.85,SSW,208,3.0,5.0,63,0.00,,---,0.00,VWS V14.01,2013-05-22 14:04:00,
2013-05-22 10:07:00,80.7,66.9,29.85,SSW,210,0.0,0.0,63,0.00,,---,0.00,VWS V14.01,2013-05-22 14:07:00,
2013-05-22 10:08:00,80.7,67.8,29.85,SSW,210,0.0,0.0,65,0.00,,---,0.00,VWS V14.01,2013-05-22 14:08:00,
2013-05-22 10:09:00,80.5,67.7,29.85,SSW,210,3.0,3.0,65,0.00,,---,0.00,VWS V14.01,2013-05-22 14:09:00,
2013-05-22 10:12:00,80.3,66.1,29.85,SW,216,3.0,9.0,62,0.00,,---,0.00,VWS V14.01,2013-05-22 14:12:00,
2013-05-22 10:13:00,80.3,66.1,29.85,SW,220,4.0,8.0,62,0.00,,---,0.00,VWS V14.01,2013-05-22 14:13:00,
2013-05-22 10:14:00,80.3,66.6,29.85,SW,220,2.0,8.0,63,0.00,,---,0.00,VWS V14.01,2013-05-22 14:14:00,
2013-05-22 10:17:00,80.3,66.6,29.85,South,191,6.0,9.0,63,0.00,,---,0.00,VWS V14.01,2013-05-22 14:17:00,
2013-05-22 10:18:00,80.3,66.6,29.85,SW,223,10.0,10.0,63,0.00,,---,0.00,VWS V14.01,2013-05-22 14:18:00,
2013-05-22 10:19:00,80.3,66.1,29.85,SSW,201,4.0,10.0,62,0.00,,---,0.00,VWS V14.01,2013-05-22 14:19:00,
2013-05-22 10:22:00,80.1,64.5,29.85,SW,219,4.0,5.0,59,0.00,,---,0.00,VWS V14.01,2013-05-22 14:22:00,
2013-05-22 10:23:00,80.1,65.9,29.85,SSW,210,6.0,6.0,62,0.00,,---,0.00,VWS V14.01,2013-05-22 14:23:00,
2013-05-22 10:24:00,80.1,65.9,29.85,SSW,210,2.0,6.0,62,0.00,,---,0.00,VWS V14.01,2013-05-22 14:24:00,
2013-05-22 10:27:00,80.3,67.0,29.85,SSW,207,2.0,7.0,64,0.00,,---,0.00,VWS V14.01,2013-05-22 14:27:00,
2013-05-22 10:28:00,80.3,67.9,29.85,South,188,3.0,4.0,66,0.00,,---,0.00,VWS V14.01,2013-05-22 14:28:00,
2013-05-22 10:29:00,80.5,68.1,29.85,South,190,5.0,6.0,66,0.00,,---,0.00,VWS V14.01,2013-05-22 14:29:00,
2013-05-22 10:32:00,80.7,66.9,29.85,SSE,152,0.0,0.0,63,0.00,,---,0.00,VWS V14.01,2013-05-22 14:32:00,
2013-05-22 10:33:00,80.9,66.7,29.85,South,182,4.0,10.0,62,0.00,,---,0.00,VWS V14.01,2013-05-22 14:33:00,
2013-05-22 10:34:00,80.7,66.5,29.85,SW,217,5.0,10.0,62,0.00,,---,0.00,VWS V14.01,2013-05-22 14:34:00,
2013-05-22 10:37:00,80.9,66.2,29.85,SW,218,3.0,4.0,61,0.00,,---,0.00,VWS V14.01,2013-05-22 14:37:00,
2013-05-22 10:38:00,81.1,67.3,29.85,SW,228,4.0,4.0,63,0.00,,---,0.00,VWS V14.01,2013-05-22 14:38:00,
2013-05-22 10:39:00,81.1,67.3,29.85,SW,228,0.0,6.0,63,0.00,,---,0.00,VWS V14.01,2013-05-22 14:39:00,
2013-05-22 10:42:00,81.4,66.2,29.85,SSW,207,7.0,7.0,60,0.00,,---,0.00,VWS V14.01,2013-05-22 14:42:00,
2013-05-22 10:43:00,81.4,66.2,29.85,SSW,195,1.0,7.0,60,0.00,,---,0.00,VWS V14.01,2013-05-22 14:43:00,
2013-05-22 10:44:00,81.6,66.4,29.85,SSW,195,1.0,1.0,60,0.00,,---,0.00,VWS V14.01,2013-05-22 14:44:00,
2013-05-22 10:47:00,82.0,65.3,29.85,SSE,163,0.0,3.0,57,0.00,,---,0.00,VWS V14.01,2013-05-22 14:47:00,
2013-05-22 10:48:00,82.0,66.3,29.85,SSE,163,1.0,1.0,59,0.00,,---,0.00,VWS V14.01,2013-05-22 14:48:00,
2013-05-22 10:49:00,82.2,66.5,29.85,SSE,163,0.0,0.0,59,0.00,,---,0.00,VWS V14.01,2013-05-22 14:49:00,
2013-05-22 10:52:00,82.6,66.8,29.85,SW,222,0.0,5.0,59,0.00,,---,0.00,VWS V14.01,2013-05-22 14:52:00,
2013-05-22 10:53:00,82.6,66.3,29.85,SW,215,0.0,2.0,58,0.00,,---,0.00,VWS V14.01,2013-05-22 14:53:00,
2013-05-22 10:54:00,82.6,66.3,29.85,SW,215,0.0,2.0,58,0.00,,---,0.00,VWS V14.01,2013-05-22 14:54:00,
2013-05-22 10:57:00,83.0,66.2,29.85,SSE,157,4.0,5.0,57,0.00,,---,0.00,VWS V14.01,2013-05-22 14:57:00,
2013-05-22 10:59:00,83.0,65.2,29.85,SSE,159,1.0,2.0,55,0.00,,---,0.00,VWS V14.01,2013-05-22 14:59:00,
2013-05-22 11:02:00,83.4,65.6,29.85,SSW,200,4.0,6.0,55,0.00,,---,0.00,VWS V14.01,2013-05-22 15:02:00,
2013-05-22 11:04:00,83.4,67.1,29.85,SW,225,4.0,6.0,58,0.00,,---,0.00,VWS V14.01,2013-05-22 15:04:00,
2013-05-22 11:07:00,83.8,67.5,29.85,SSW,202,6.0,10.0,58,0.00,,---,0.00,VWS V14.01,2013-05-22 15:07:00,
2013-05-22 11:09:00,84.0,64.5,29.85,SSW,202,1.0,2.0,52,0.00,,---,0.00,VWS V14.01,2013-05-22 15:09:00,
2013-05-22 11:13:00,84.1,63.5,29.85,South,185,3.0,6.0,50,0.00,,---,0.00,VWS V14.01,2013-05-22 15:13:00,
2013-05-22 11:14:00,84.1,62.9,29.85,South,190,3.0,5.0,49,0.00,,---,0.00,VWS V14.01,2013-05-22 15:14:00,
2013-05-22 11:18:00,84.5,65.5,29.85,South,182,0.0,2.0,53,0.00,,---,0.00,VWS V14.01,2013-05-22 15:18:00,
2013-05-22 11:19:00,84.5,65.0,29.85,SSE,157,5.0,5.0,52,0.00,,---,0.00,VWS V14.01,2013-05-22 15:19:00,
2013-05-22 11:23:00,84.5,63.3,29.85,SSE,164,0.0,5.0,49,0.00,,---,0.00,VWS V14.01,2013-05-22 15:23:00,
2013-05-22 11:24:00,84.7,62.9,29.85,SSE,164,0.0,0.0,48,0.00,,---,0.00,VWS V14.01,2013-05-22 15:24:00,
2013-05-22 11:28:00,84.7,62.3,29.85,SW,219,0.0,5.0,47,0.00,,---,0.00,VWS V14.01,2013-05-22 15:28:00,
2013-05-22 11:29:00,84.7,62.9,29.85,South,180,9.0,9.0,48,0.00,,---,0.00,VWS V14.01,2013-05-22 15:29:00,
2013-05-22 11:33:00,84.9,62.4,29.84,SW,215,4.0,10.0,47,0.00,,---,0.00,VWS V14.01,2013-05-22 15:33:00,
2013-05-22 11:34:00,84.7,61.0,29.84,South,189,6.0,9.0,45,0.00,,---,0.00,VWS V14.01,2013-05-22 15:34:00,
2013-05-22 11:38:00,84.9,61.8,29.84,South,175,5.0,6.0,46,0.00,,---,0.00,VWS V14.01,2013-05-22 15:38:00,
2013-05-22 11:39:00,84.9,62.4,29.84,South,185,4.0,5.0,47,0.00,,---,0.00,VWS V14.01,2013-05-22 15:39:00,
2013-05-22 11:43:00,85.1,63.8,29.84,SSW,205,5.0,5.0,49,0.00,,---,0.00,VWS V14.01,2013-05-22 15:43:00,
2013-05-22 11:44:00,85.1,62.6,29.84,SW,223,3.0,3.0,47,0.00,,---,0.00,VWS V14.01,2013-05-22 15:44:00,
2013-05-22 11:48:00,85.3,61.6,29.84,SSE,151,3.0,3.0,45,0.00,,---,0.00,VWS V14.01,2013-05-22 15:48:00,
2013-05-22 11:49:00,85.5,61.8,29.84,South,178,2.0,7.0,45,0.00,,---,0.00,VWS V14.01,2013-05-22 15:49:00,
2013-05-22 11:53:00,85.7,63.2,29.84,South,182,1.0,1.0,47,0.00,,---,0.00,VWS V14.01,2013-05-22 15:53:00,
2013-05-22 11:54:00,85.7,63.8,29.84,South,178,6.0,6.0,48,0.00,,---,0.00,VWS V14.01,2013-05-22 15:54:00,
2013-05-22 11:58:00,86.1,64.1,29.84,South,185,0.0,0.0,48,0.00,,---,0.00,VWS V14.01,2013-05-22 15:58:00,
2013-05-22 11:59:00,86.1,65.9,29.84,South,185,1.0,1.0,51,0.00,,---,0.00,VWS V14.01,2013-05-22 15:59:00,
2013-05-22 12:03:00,86.1,62.3,29.83,SSE,165,3.0,4.0,45,0.00,,---,0.00,VWS V14.01,2013-05-22 16:03:00,
2013-05-22 12:04:00,86.1,63.5,29.83,South,170,2.0,2.0,47,0.00,,---,0.00,VWS V14.01,2013-05-22 16:04:00,
2013-05-22 12:05:00,86.1,62.3,29.83,SSE,163,2.0,4.0,45,0.00,,---,0.00,VWS V14.01,2013-05-22 16:05:00,
2013-05-22 12:08:00,86.3,64.3,29.83,SSW,211,8.0,8.0,48,0.00,,---,0.00,VWS V14.01,2013-05-22 16:08:00,
2013-05-22 12:09:00,86.3,64.3,29.83,SSW,212,3.0,6.0,48,0.00,,---,0.00,VWS V14.01,2013-05-22 16:09:00,
2013-05-22 12:10:00,86.3,63.7,29.83,SSW,209,2.0,6.0,47,0.00,,---,0.00,VWS V14.01,2013-05-22 16:10:00,
2013-05-22 12:13:00,86.7,64.1,29.83,SW,215,0.0,6.0,47,0.00,,---,0.00,VWS V14.01,2013-05-22 16:13:00,
2013-05-22 12:14:00,86.7,64.7,29.83,South,188,4.0,7.0,48,0.00,,---,0.00,VWS V14.01,2013-05-22 16:14:00,
2013-05-22 12:15:00,86.7,62.8,29.83,South,188,1.0,7.0,45,0.00,,---,0.00,VWS V14.01,2013-05-22 16:15:00,
2013-05-22 12:18:00,87.0,61.8,29.83,South,177,0.0,0.0,43,0.00,,---,0.00,VWS V14.01,2013-05-22 16:18:00,
2013-05-22 12:19:00,87.0,60.5,29.83,South,177,0.0,0.0,41,0.00,,---,0.00,VWS V14.01,2013-05-22 16:19:00,
2013-05-22 12:20:00,87.0,60.5,29.83,South,177,0.0,0.0,41,0.00,,---,0.00,VWS V14.01,2013-05-22 16:20:00,
2013-05-22 12:23:00,87.2,63.3,29.83,ESE,115,0.0,1.0,45,0.00,,---,0.00,VWS V14.01,2013-05-22 16:23:00,
2013-05-22 12:24:00,87.2,65.7,29.83,South,186,5.0,6.0,49,0.00,,---,0.00,VWS V14.01,2013-05-22 16:24:00,
2013-05-22 12:25:00,87.2,65.7,29.83,South,186,4.0,6.0,49,0.00,,---,0.00,VWS V14.01,2013-05-22 16:25:00,
2013-05-22 12:29:00,87.4,63.5,29.83,SW,233,0.0,5.0,45,0.00,,---,0.00,VWS V14.01,2013-05-22 16:29:00,
2013-05-22 12:30:00,87.4,63.5,29.83,SW,231,6.0,9.0,45,0.00,,---,0.00,VWS V14.01,2013-05-22 16:30:00,
2013-05-22 12:34:00,87.6,61.7,29.82,SSW,205,9.0,11.0,42,0.00,,---,0.00,VWS V14.01,2013-05-22 16:34:00,
2013-05-22 12:35:00,87.6,63.7,29.82,South,187,4.0,10.0,45,0.00,,---,0.00,VWS V14.01,2013-05-22 16:35:00,
2013-05-22 12:39:00,87.6,62.4,29.82,SE,140,7.0,7.0,43,0.00,,---,0.00,VWS V14.01,2013-05-22 16:39:00,
2013-05-22 12:40:00,87.6,62.4,29.82,SE,145,0.0,0.0,43,0.00,,---,0.00,VWS V14.01,2013-05-22 16:40:00,
2013-05-22 12:44:00,87.6,62.4,29.82,South,178,0.0,0.0,43,0.00,,---,0.00,VWS V14.01,2013-05-22 16:44:00,
2013-05-22 12:45:00,87.8,62.5,29.82,SSW,196,1.0,5.0,43,0.00,,---,0.00,VWS V14.01,2013-05-22 16:45:00,
2013-05-22 12:46:00,87.8,61.9,29.82,South,184,2.0,7.0,42,0.00,,---,0.00,VWS V14.01,2013-05-22 16:46:00,
2013-05-22 12:49:00,87.8,63.8,29.82,South,184,3.0,4.0,45,0.00,,---,0.00,VWS V14.01,2013-05-22 16:49:00,
2013-05-22 12:50:00,88.0,65.9,29.82,South,184,1.0,4.0,48,0.00,,---,0.00,VWS V14.01,2013-05-22 16:50:00,
2013-05-22 12:51:00,88.0,65.3,29.82,South,178,7.0,7.0,47,0.00,,---,0.00,VWS V14.01,2013-05-22 16:51:00,
2013-05-22 12:54:00,88.0,62.0,29.82,South,184,1.0,4.0,42,0.00,,---,0.00,VWS V14.01,2013-05-22 16:54:00,
2013-05-22 12:55:00,88.0,62.0,29.82,South,184,0.0,4.0,42,0.00,,---,0.00,VWS V14.01,2013-05-22 16:55:00,
2013-05-22 12:56:00,88.0,61.4,29.82,SSE,149,5.0,6.0,41,0.00,,---,0.00,VWS V14.01,2013-05-22 16:56:00,
2013-05-22 12:59:00,88.2,63.6,29.82,South,190,4.0,8.0,44,0.00,,---,0.00,VWS V14.01,2013-05-22 16:59:00,
2013-05-22 13:00:00,88.2,63.6,29.82,South,191,6.0,8.0,44,0.00,,---,0.00,VWS V14.01,2013-05-22 17:00:00,
2013-05-22 13:01:00,88.2,63.6,29.82,SSW,194,0.0,1.0,44,0.00,,---,0.00,VWS V14.01,2013-05-22 17:01:00,
2013-05-22 13:04:00,88.2,61.5,29.82,SSE,153,0.0,5.0,41,0.00,,---,0.00,VWS V14.01,2013-05-22 17:04:00,
2013-05-22 13:05:00,88.2,61.5,29.82,SSE,153,0.0,5.0,41,0.00,,---,0.00,VWS V14.01,2013-05-22 17:05:00,
2013-05-22 13:06:00,88.4,63.1,29.82,SW,224,1.0,5.0,43,0.00,,---,0.00,VWS V14.01,2013-05-22 17:06:00,
2013-05-22 13:09:00,88.6,62.6,29.82,SSW,210,10.0,10.0,42,0.00,,---,0.00,VWS V14.01,2013-05-22 17:09:00,
2013-05-22 13:10:00,88.6,61.9,29.82,SSW,213,0.0,10.0,41,0.00,,---,0.00,VWS V14.01,2013-05-22 17:10:00,
2013-05-22 13:11:00,88.6,62.6,29.82,SSW,213,0.0,1.0,42,0.00,,---,0.00,VWS V14.01,2013-05-22 17:11:00,
2013-05-22 13:14:00,88.8,61.4,29.82,SW,216,0.0,0.0,40,0.00,,---,0.00,VWS V14.01,2013-05-22 17:14:00,
2013-05-22 13:15:00,88.8,61.4,29.82,SW,216,0.0,0.0,40,0.00,,---,0.00,VWS V14.01,2013-05-22 17:15:00,
2013-05-22 13:16:00,88.8,62.1,29.82,SSE,157,5.0,7.0,41,0.00,,---,0.00,VWS V14.01,2013-05-22 17:16:00,
2013-05-22 13:19:00,88.8,61.4,29.81,South,175,2.0,6.0,40,0.00,,---,0.00,VWS V14.01,2013-05-22 17:19:00,
2013-05-22 13:20:00,88.8,61.4,29.81,SSE,149,6.0,6.0,40,0.00,,---,0.00,VWS V14.01,2013-05-22 17:20:00,
2013-05-22 13:21:00,88.8,62.1,29.81,South,169,3.0,8.0,41,0.00,,---,0.00,VWS V14.01,2013-05-22 17:21:00,
2013-05-22 13:24:00,89.0,66.8,29.81,SSW,206,3.0,5.0,48,0.00,,---,0.00,VWS V14.01,2013-05-22 17:24:00,
2013-05-22 13:25:00,89.0,64.3,29.81,South,178,3.0,3.0,44,0.00,,---,0.00,VWS V14.01,2013-05-22 17:25:00,
2013-05-22 13:26:00,89.0,63.6,29.81,SSW,200,0.0,4.0,43,0.00,,---,0.00,VWS V14.01,2013-05-22 17:26:00,
2013-05-22 13:30:00,89.0,63.0,29.81,SE,125,1.0,7.0,42,0.00,,---,0.00,VWS V14.01,2013-05-22 17:30:00,
2013-05-22 13:31:00,88.8,60.7,29.81,ENE,74,4.0,7.0,39,0.00,,---,0.00,VWS V14.01,2013-05-22 17:31:00,
2013-05-22 13:35:00,88.6,63.3,29.80,SE,134,3.0,7.0,43,0.00,,---,0.00,VWS V14.01,2013-05-22 17:35:00,
2013-05-22 13:36:00,88.6,63.3,29.80,SW,217,12.0,12.0,43,0.00,,---,0.00,VWS V14.01,2013-05-22 17:36:00,
2013-05-22 13:40:00,88.6,62.6,29.80,SE,128,1.0,2.0,42,0.00,,---,0.00,VWS V14.01,2013-05-22 17:40:00,
2013-05-22 13:41:00,88.4,63.1,29.80,East,96,3.0,5.0,43,0.00,,---,0.00,VWS V14.01,2013-05-22 17:41:00,
2013-05-22 13:45:00,88.2,62.2,29.80,SE,131,9.0,9.0,42,0.00,,---,0.00,VWS V14.01,2013-05-22 17:45:00,
2013-05-22 13:46:00,88.2,62.9,29.80,East,99,8.0,10.0,43,0.00,,---,0.00,VWS V14.01,2013-05-22 17:46:00,
2013-05-22 13:50:00,88.0,64.0,29.80,ESE,117,0.0,6.0,45,0.00,,---,0.00,VWS V14.01,2013-05-22 17:50:00,
2013-05-22 13:51:00,88.0,64.0,29.80,SE,134,5.0,5.0,45,0.00,,---,0.00,VWS V14.01,2013-05-22 17:51:00,
2013-05-22 13:52:00,88.0,63.4,29.80,NE,55,3.0,5.0,44,0.00,,---,0.00,VWS V14.01,2013-05-22 17:52:00,
2013-05-22 13:55:00,88.0,64.7,29.80,SE,139,1.0,1.0,46,0.00,,---,0.00,VWS V14.01,2013-05-22 17:55:00,
2013-05-22 13:56:00,88.0,64.0,29.80,ESE,118,3.0,5.0,45,0.00,,---,0.00,VWS V14.01,2013-05-22 17:56:00,
2013-05-22 13:57:00,87.8,64.5,29.80,SE,126,6.0,6.0,46,0.00,,---,0.00,VWS V14.01,2013-05-22 17:57:00,
2013-05-22 14:00:00,87.6,63.7,29.80,ESE,115,5.0,5.0,45,0.00,,---,0.00,VWS V14.01,2013-05-22 18:00:00,
2013-05-22 14:01:00,87.4,62.2,29.80,ESE,107,3.0,3.0,43,0.00,,---,0.00,VWS V14.01,2013-05-22 18:01:00,
2013-05-22 14:02:00,87.4,64.1,29.79,SE,146,4.0,6.0,46,0.00,,---,0.00,VWS V14.01,2013-05-22 18:02:00,
2013-05-22 14:05:00,87.2,63.3,29.79,SSE,150,2.0,3.0,45,0.00,,---,0.00,VWS V14.01,2013-05-22 18:05:00,
2013-05-22 14:06:00,87.2,62.7,29.79,SSE,150,0.0,0.0,44,0.00,,---,0.00,VWS V14.01,2013-05-22 18:06:00,
2013-05-22 14:07:00,87.0,62.5,29.79,SE,133,4.0,4.0,44,0.00,,---,0.00,VWS V14.01,2013-05-22 18:07:00,
2013-05-22 14:10:00,87.0,63.7,29.79,SE,139,6.0,6.0,46,0.00,,---,0.00,VWS V14.01,2013-05-22 18:10:00,
2013-05-22 14:11:00,86.7,63.5,29.79,SE,139,3.0,3.0,46,0.00,,---,0.00,VWS V14.01,2013-05-22 18:11:00,
2013-05-22 14:12:00,86.7,64.1,29.79,SE,139,0.0,1.0,47,0.00,,---,0.00,VWS V14.01,2013-05-22 18:12:00,
2013-05-22 14:15:00,86.7,64.7,29.79,SE,144,0.0,0.0,48,0.00,,---,0.00,VWS V14.01,2013-05-22 18:15:00,
2013-05-22 14:16:00,86.7,64.7,29.79,SSE,162,4.0,4.0,48,0.00,,---,0.00,VWS V14.01,2013-05-22 18:16:00,
2013-05-22 14:17:00,86.7,63.5,29.78,SE,131,2.0,5.0,46,0.00,,---,0.00,VWS V14.01,2013-05-22 18:17:00,
2013-05-22 14:20:00,86.7,64.7,29.78,SE,138,3.0,8.0,48,0.00,,---,0.00,VWS V14.01,2013-05-22 18:20:00,
2013-05-22 14:21:00,86.7,64.1,29.78,SSE,167,0.0,3.0,47,0.00,,---,0.00,VWS V14.01,2013-05-22 18:21:00,
2013-05-22 14:22:00,86.7,64.1,29.78,SSE,155,3.0,5.0,47,0.00,,---,0.00,VWS V14.01,2013-05-22 18:22:00,
2013-05-22 14:25:00,86.7,63.5,29.78,SSE,166,0.0,1.0,46,0.00,,---,0.00,VWS V14.01,2013-05-22 18:25:00,
2013-05-22 14:26:00,86.7,64.7,29.78,SSE,166,3.0,5.0,48,0.00,,---,0.00,VWS V14.01,2013-05-22 18:26:00,
2013-05-22 14:27:00,86.7,63.5,29.78,SSE,166,1.0,3.0,46,0.00,,---,0.00,VWS V14.01,2013-05-22 18:27:00,
2013-05-22 14:30:00,87.0,65.6,29.78,SSE,160,5.0,11.0,49,0.00,,---,0.00,VWS V14.01,2013-05-22 18:30:00,
2013-05-22 14:31:00,87.0,64.3,29.78,South,173,1.0,11.0,47,0.00,,---,0.00,VWS V14.01,2013-05-22 18:31:00,
2013-05-22 14:32:00,87.0,65.0,29.78,SE,134,6.0,6.0,48,0.00,,---,0.00,VWS V14.01,2013-05-22 18:32:00,
2013-05-22 14:33:00,87.0,63.7,29.78,SSE,161,4.0,6.0,46,0.00,,---,0.00,VWS V14.01,2013-05-22 18:33:00,
2013-05-22 14:35:00,87.2,63.3,29.78,SSW,205,1.0,7.0,45,0.00,,---,0.00,VWS V14.01,2013-05-22 18:35:00,
2013-05-22 14:36:00,87.2,63.3,29.78,ESE,123,10.0,10.0,45,0.00,,---,0.00,VWS V14.01,2013-05-22 18:36:00,
2013-05-22 14:37:00,87.2,62.7,29.78,SSE,153,4.0,11.0,44,0.00,,---,0.00,VWS V14.01,2013-05-22 18:37:00,
2013-05-22 14:38:00,87.2,62.7,29.78,ESE,115,4.0,7.0,44,0.00,,---,0.00,VWS V14.01,2013-05-22 18:38:00,
2013-05-22 14:40:00,87.2,64.5,29.78,SSW,205,0.0,8.0,47,0.00,,---,0.00,VWS V14.01,2013-05-22 18:40:00,
2013-05-22 14:41:00,87.4,63.5,29.78,South,183,0.0,1.0,45,0.00,,---,0.00,VWS V14.01,2013-05-22 18:41:00,
2013-05-22 14:42:00,87.4,64.1,29.78,South,175,2.0,2.0,46,0.00,,---,0.00,VWS V14.01,2013-05-22 18:42:00,
2013-05-22 14:43:00,87.4,64.1,29.78,South,175,0.0,4.0,46,0.00,,---,0.00,VWS V14.01,2013-05-22 18:43:00,
2013-05-22 14:45:00,87.4,63.5,29.78,SSE,149,7.0,7.0,45,0.00,,---,0.00,VWS V14.01,2013-05-22 18:45:00,
2013-05-22 14:46:00,87.6,63.7,29.78,SSE,149,4.0,4.0,45,0.00,,---,0.00,VWS V14.01,2013-05-22 18:46:00,
2013-05-22 14:47:00,87.6,62.4,29.78,SE,134,3.0,3.0,43,0.00,,---,0.00,VWS V14.01,2013-05-22 18:47:00,
2013-05-22 14:48:00,87.6,63.7,29.78,SE,134,1.0,3.0,45,0.00,,---,0.00,VWS V14.01,2013-05-22 18:48:00,
2013-05-22 14:50:00,87.6,63.7,29.78,SW,217,6.0,6.0,45,0.00,,---,0.00,VWS V14.01,2013-05-22 18:50:00,
2013-05-22 14:51:00,87.6,65.5,29.78,SSE,161,7.0,7.0,48,0.00,,---,0.00,VWS V14.01,2013-05-22 18:51:00,
2013-05-22 14:52:00,87.8,65.7,29.78,SSE,159,0.0,0.0,48,0.00,,---,0.00,VWS V14.01,2013-05-22 18:52:00,
2013-05-22 14:53:00,87.8,63.8,29.78,SE,130,0.0,0.0,45,0.00,,---,0.00,VWS V14.01,2013-05-22 18:53:00,
2013-05-22 14:55:00,87.8,63.8,29.78,SE,141,3.0,4.0,45,0.00,,---,0.00,VWS V14.01,2013-05-22 18:55:00,
2013-05-22 14:56:00,87.8,63.8,29.78,SE,136,3.0,3.0,45,0.00,,---,0.00,VWS V14.01,2013-05-22 18:56:00,
2013-05-22 14:57:00,87.8,63.8,29.78,SE,136,0.0,3.0,45,0.00,,---,0.00,VWS V14.01,2013-05-22 18:57:00,
2013-05-22 14:58:00,87.8,63.8,29.78,SSE,149,3.0,5.0,45,0.00,,---,0.00,VWS V14.01,2013-05-22 18:58:00,
2013-05-22 15:00:00,87.6,63.0,29.78,ESE,123,0.0,1.0,44,0.00,,---,0.00,VWS V14.01,2013-05-22 19:00:00,
2013-05-22 15:01:00,87.6,63.0,29.78,ESE,123,0.0,0.0,44,0.00,,---,0.00,VWS V14.01,2013-05-22 19:01:00,
2013-05-22 15:02:00,87.6,63.7,29.78,SSE,148,0.0,1.0,45,0.00,,---,0.00,VWS V14.01,2013-05-22 19:02:00,
2013-05-22 15:03:00,87.6,64.9,29.78,SSE,148,2.0,2.0,47,0.00,,---,0.00,VWS V14.01,2013-05-22 19:03:00,
2013-05-22 15:06:00,87.6,62.4,29.78,SSE,155,0.0,4.0,43,0.00,,---,0.00,VWS V14.01,2013-05-22 19:06:00,
2013-05-22 15:07:00,87.8,65.1,29.78,SSE,155,0.0,1.0,47,0.00,,---,0.00,VWS V14.01,2013-05-22 19:07:00,
2013-05-22 15:08:00,87.8,63.2,29.78,SSE,155,3.0,3.0,44,0.00,,---,0.00,VWS V14.01,2013-05-22 19:08:00,
2013-05-22 15:11:00,88.0,65.9,29.78,SSE,155,1.0,1.0,48,0.00,,---,0.00,VWS V14.01,2013-05-22 19:11:00,
2013-05-22 15:12:00,88.0,65.3,29.78,SSW,200,2.0,4.0,47,0.00,,---,0.00,VWS V14.01,2013-05-22 19:12:00,
2013-05-22 15:13:00,88.0,64.7,29.78,SSW,205,0.0,5.0,46,0.00,,---,0.00,VWS V14.01,2013-05-22 19:13:00,
2013-05-22 15:16:00,88.0,62.7,29.78,SSE,165,3.0,5.0,43,0.00,,---,0.00,VWS V14.01,2013-05-22 19:16:00,
2013-05-22 15:17:00,87.8,61.9,29.77,SSE,163,5.0,6.0,42,0.00,,---,0.00,VWS V14.01,2013-05-22 19:17:00,
2013-05-22 15:18:00,87.8,61.9,29.77,SSE,150,0.0,1.0,42,0.00,,---,0.00,VWS V14.01,2013-05-22 19:18:00,
2013-05-22 15:21:00,87.8,64.5,29.77,SSE,150,0.0,0.0,46,0.00,,---,0.00,VWS V14.01,2013-05-22 19:21:00,
2013-05-22 15:22:00,87.8,63.8,29.77,SSE,150,0.0,0.0,45,0.00,,---,0.00,VWS V14.01,2013-05-22 19:22:00,
2013-05-22 15:23:00,87.8,63.2,29.77,SSE,150,0.0,0.0,44,0.00,,---,0.00,VWS V14.01,2013-05-22 19:23:00,
2013-05-22 15:26:00,87.6,63.7,29.77,SSE,150,0.0,0.0,45,0.00,,---,0.00,VWS V14.01,2013-05-22 19:26:00,
2013-05-22 15:27:00,87.6,63.0,29.77,SSE,150,0.0,0.0,44,0.00,,---,0.00,VWS V14.01,2013-05-22 19:27:00,
2013-05-22 15:28:00,87.6,64.3,29.77,SSE,150,1.0,1.0,46,0.00,,---,0.00,VWS V14.01,2013-05-22 19:28:00,
2013-05-22 15:31:00,87.4,63.5,29.77,SE,139,3.0,5.0,45,0.00,,---,0.00,VWS V14.01,2013-05-22 19:31:00,
2013-05-22 15:32:00,87.4,63.5,29.76,SSE,148,3.0,5.0,45,0.00,,---,0.00,VWS V14.01,2013-05-22 19:32:00,
2013-05-22 15:33:00,87.4,63.5,29.76,SSE,155,3.0,5.0,45,0.00,,---,0.00,VWS V14.01,2013-05-22 19:33:00,
2013-05-22 15:36:00,87.0,64.3,29.76,ESE,111,0.0,0.0,47,0.00,,---,0.00,VWS V14.01,2013-05-22 19:36:00,
2013-05-22 15:37:00,87.0,64.3,29.76,ESE,109,3.0,4.0,47,0.00,,---,0.00,VWS V14.01,2013-05-22 19:37:00,
2013-05-22 15:38:00,87.0,64.3,29.76,SE,124,0.0,0.0,47,0.00,,---,0.00,VWS V14.01,2013-05-22 19:38:00,
2013-05-22 15:41:00,86.7,64.7,29.76,ESE,103,1.0,1.0,48,0.00,,---,0.00,VWS V14.01,2013-05-22 19:41:00,
2013-05-22 15:42:00,86.5,64.5,29.76,ESE,107,3.0,3.0,48,0.00,,---,0.00,VWS V14.01,2013-05-22 19:42:00,
2013-05-22 15:43:00,86.5,63.9,29.76,SE,136,0.0,0.0,47,0.00,,---,0.00,VWS V14.01,2013-05-22 19:43:00,
2013-05-22 15:46:00,86.3,64.3,29.76,SE,136,0.0,1.0,48,0.00,,---,0.00,VWS V14.01,2013-05-22 19:46:00,
2013-05-22 15:47:00,86.3,64.9,29.76,SE,136,1.0,1.0,49,0.00,,---,0.00,VWS V14.01,2013-05-22 19:47:00,
2013-05-22 15:48:00,86.3,65.5,29.76,SE,136,0.0,0.0,50,0.00,,---,0.00,VWS V14.01,2013-05-22 19:48:00,
2013-05-22 15:49:00,86.3,66.1,29.76,SE,136,0.0,0.0,51,0.00,,---,0.00,VWS V14.01,2013-05-22 19:49:00,
2013-05-22 15:51:00,86.1,65.9,29.76,SE,136,0.0,0.0,51,0.00,,---,0.00,VWS V14.01,2013-05-22 19:51:00,
2013-05-22 15:52:00,86.1,66.4,29.76,SE,136,0.0,0.0,52,0.00,,---,0.00,VWS V14.01,2013-05-22 19:52:00,
2013-05-22 15:53:00,86.1,66.4,29.76,SE,136,1.0,1.0,52,0.00,,---,0.00,VWS V14.01,2013-05-22 19:53:00,
2013-05-22 15:54:00,85.9,66.2,29.76,South,191,2.0,4.0,52,0.00,,---,0.00,VWS V14.01,2013-05-22 19:54:00,
2013-05-22 15:56:00,85.7,66.1,29.76,SSE,161,3.0,6.0,52,0.00,,---,0.00,VWS V14.01,2013-05-22 19:56:00,
2013-05-22 15:57:00,85.7,66.1,29.76,SSE,161,0.0,3.0,52,0.00,,---,0.00,VWS V14.01,2013-05-22 19:57:00,
2013-05-22 15:58:00,85.7,66.1,29.76,SSE,158,0.0,0.0,52,0.00,,---,0.00,VWS V14.01,2013-05-22 19:58:00,
2013-05-22 15:59:00,85.7,66.1,29.76,SSE,158,0.0,0.0,52,0.00,,---,0.00,VWS V14.01,2013-05-22 19:59:00,
2013-05-22 16:01:00,85.5,66.4,29.76,SSE,166,1.0,9.0,53,0.00,,---,0.00,VWS V14.01,2013-05-22 20:01:00,
2013-05-22 16:02:00,85.5,67.0,29.76,SSE,166,0.0,0.0,54,0.00,,---,0.00,VWS V14.01,2013-05-22 20:02:00,
2013-05-22 16:03:00,85.5,67.0,29.76,SSE,166,0.0,1.0,54,0.00,,---,0.00,VWS V14.01,2013-05-22 20:03:00,
2013-05-22 16:04:00,85.3,66.8,29.76,WSW,248,3.0,5.0,54,0.00,,---,0.00,VWS V14.01,2013-05-22 20:04:00,
2013-05-22 16:06:00,85.3,68.3,29.76,WNW,286,5.0,6.0,57,0.00,,---,0.00,VWS V14.01,2013-05-22 20:06:00,
2013-05-22 16:07:00,85.3,68.9,29.76,WNW,290,6.0,9.0,58,0.00,,---,0.00,VWS V14.01,2013-05-22 20:07:00,
2013-05-22 16:08:00,85.3,68.9,29.76,WNW,286,2.0,9.0,58,0.00,,---,0.00,VWS V14.01,2013-05-22 20:08:00,
2013-05-22 16:09:00,85.1,68.2,29.76,WNW,286,4.0,5.0,57,0.00,,---,0.00,VWS V14.01,2013-05-22 20:09:00,
2013-05-22 16:11:00,84.5,66.6,29.76,WNW,303,4.0,4.0,55,0.00,,---,0.00,VWS V14.01,2013-05-22 20:11:00,
2013-05-22 16:12:00,84.3,66.4,29.76,WNW,303,1.0,2.0,55,0.00,,---,0.00,VWS V14.01,2013-05-22 20:12:00,
2013-05-22 16:13:00,84.1,65.7,29.76,NW,315,0.0,2.0,54,0.00,,---,0.00,VWS V14.01,2013-05-22 20:13:00,
2013-05-22 16:14:00,83.8,66.4,29.76,NW,313,0.0,2.0,56,0.00,,---,0.00,VWS V14.01,2013-05-22 20:14:00,
2013-05-22 16:17:00,83.4,66.1,29.76,NW,313,2.0,2.0,56,0.00,,---,0.00,VWS V14.01,2013-05-22 20:17:00,
2013-05-22 16:18:00,83.4,66.1,29.76,NNW,335,2.0,2.0,56,0.00,,---,0.00,VWS V14.01,2013-05-22 20:18:00,
2013-05-22 16:19:00,83.2,65.9,29.76,NW,307,6.0,6.0,56,0.00,,---,0.00,VWS V14.01,2013-05-22 20:19:00,
2013-05-22 16:22:00,82.6,63.8,29.76,NW,317,2.0,3.0,53,0.00,,---,0.00,VWS V14.01,2013-05-22 20:22:00,
2013-05-22 16:23:00,82.4,64.1,29.76,NW,315,0.0,0.0,54,0.00,,---,0.00,VWS V14.01,2013-05-22 20:23:00,
2013-05-22 16:24:00,82.4,63.6,29.76,SW,234,2.0,2.0,53,0.00,,---,0.00,VWS V14.01,2013-05-22 20:24:00,
2013-05-22 16:27:00,82.2,64.4,29.76,SSE,165,2.0,6.0,55,0.00,,---,0.00,VWS V14.01,2013-05-22 20:27:00,
2013-05-22 16:28:00,81.8,64.1,29.76,South,182,10.0,15.0,55,0.00,,---,0.00,VWS V14.01,2013-05-22 20:28:00,
2013-05-22 16:29:00,81.6,62.8,29.76,SSE,161,5.0,5.0,53,0.00,,---,0.00,VWS V14.01,2013-05-22 20:29:00,
2013-05-22 16:32:00,80.9,64.8,29.76,ENE,76,7.0,17.0,58,0.01,,---,0.01,VWS V14.01,2013-05-22 20:32:00,
2013-05-22 16:33:00,80.3,64.2,29.77,East,96,6.0,6.0,58,0.01,,---,0.01,VWS V14.01,2013-05-22 20:33:00,
2013-05-22 16:34:00,79.6,63.5,29.77,SSE,162,10.0,11.0,58,0.03,,---,0.03,VWS V14.01,2013-05-22 20:34:00,
2013-05-22 16:37:00,78.5,64.4,29.77,East,95,3.0,5.0,62,0.07,,---,0.07,VWS V14.01,2013-05-22 20:37:00,
2013-05-22 16:38:00,78.1,64.9,29.77,ENE,60,2.0,5.0,64,0.09,,---,0.09,VWS V14.01,2013-05-22 20:38:00,
2013-05-22 16:39:00,77.4,63.8,29.77,NE,55,3.0,6.0,63,0.12,,---,0.12,VWS V14.01,2013-05-22 20:39:00,
2013-05-22 16:42:00,75.8,64.5,29.77,North,5,7.0,7.0,68,0.19,,---,0.19,VWS V14.01,2013-05-22 20:42:00,
2013-05-22 16:43:00,75.3,64.4,29.77,North,355,7.0,7.0,69,0.21,,---,0.21,VWS V14.01,2013-05-22 20:43:00,
2013-05-22 16:44:00,74.2,63.4,29.77,North,350,5.0,9.0,69,0.22,,---,0.22,VWS V14.01,2013-05-22 20:44:00,
2013-05-22 16:47:00,72.8,63.3,29.77,NNW,342,7.0,7.0,72,0.22,,---,0.22,VWS V14.01,2013-05-22 20:47:00,
2013-05-22 16:48:00,72.5,63.0,29.77,NNW,341,7.0,7.0,72,0.22,,---,0.22,VWS V14.01,2013-05-22 20:48:00,
2013-05-22 16:49:00,72.1,63.0,29.77,North,355,6.0,9.0,73,0.22,,---,0.22,VWS V14.01,2013-05-22 20:49:00,
2013-05-22 16:52:00,71.3,63.0,29.77,NNW,327,0.0,1.0,75,0.22,,---,0.22,VWS V14.01,2013-05-22 20:52:00,
2013-05-22 16:53:00,70.9,62.6,29.77,WSW,238,5.0,5.0,75,0.22,,---,0.22,VWS V14.01,2013-05-22 20:53:00,
2013-05-22 16:54:00,70.8,62.9,29.77,SSW,208,10.0,13.0,76,0.22,,---,0.22,VWS V14.01,2013-05-22 20:54:00,
2013-05-22 16:57:00,70.4,63.6,29.77,WSW,240,5.0,8.0,79,0.22,,---,0.22,VWS V14.01,2013-05-22 20:57:00,
2013-05-22 16:58:00,70.4,63.6,29.77,WSW,240,0.0,1.0,79,0.22,,---,0.22,VWS V14.01,2013-05-22 20:58:00,
2013-05-22 16:59:00,70.3,63.8,29.77,NNW,337,5.0,5.0,80,0.22,,---,0.22,VWS V14.01,2013-05-22 20:59:00,
2013-05-22 17:02:00,70.1,64.4,29.80,NW,320,3.0,5.0,82,0.22,,---,0.22,VWS V14.01,2013-05-22 21:02:00,
2013-05-22 17:03:00,69.9,64.5,29.80,NW,306,4.0,5.0,83,0.22,,---,0.22,VWS V14.01,2013-05-22 21:03:00,
2013-05-22 17:04:00,69.9,64.5,29.80,WSW,249,5.0,6.0,83,0.22,,---,0.22,VWS V14.01,2013-05-22 21:04:00,
2013-05-22 17:07:00,69.8,65.1,29.80,SW,234,9.0,9.0,85,0.22,,---,0.22,VWS V14.01,2013-05-22 21:07:00,
2013-05-22 17:08:00,69.6,64.9,29.80,North,5,6.0,19.0,85,0.22,,---,0.22,VWS V14.01,2013-05-22 21:08:00,
2013-05-22 17:09:00,69.6,64.9,29.80,North,5,5.0,19.0,85,0.22,,---,0.22,VWS V14.01,2013-05-22 21:09:00,
2013-05-22 17:12:00,69.3,64.9,29.80,South,185,3.0,7.0,86,0.22,,---,0.22,VWS V14.01,2013-05-22 21:12:00,
2013-05-22 17:13:00,69.1,64.7,29.80,South,175,0.0,12.0,86,0.22,,---,0.22,VWS V14.01,2013-05-22 21:13:00,
2013-05-22 17:14:00,69.1,64.7,29.80,South,175,0.0,12.0,86,0.22,,---,0.22,VWS V14.01,2013-05-22 21:14:00,
2013-05-22 17:17:00,68.8,64.8,29.81,SSW,199,2.0,7.0,87,0.23,,---,0.23,VWS V14.01,2013-05-22 21:17:00,
2013-05-22 17:19:00,68.8,64.8,29.81,SSW,206,9.0,11.0,87,0.23,,---,0.23,VWS V14.01,2013-05-22 21:19:00,
2013-05-22 17:22:00,68.3,64.6,29.81,SW,231,14.0,14.0,88,0.35,,---,0.35,VWS V14.01,2013-05-22 21:22:00,
2013-05-22 17:24:00,68.1,64.4,29.81,SW,236,11.0,13.0,88,0.46,,---,0.46,VWS V14.01,2013-05-22 21:24:00,
2013-05-22 17:25:00,67.9,64.2,29.81,SSW,210,4.0,18.0,88,0.56,,---,0.56,VWS V14.01,2013-05-22 21:25:00,
2013-05-22 17:27:00,67.6,64.2,29.81,WSW,251,11.0,14.0,89,0.67,,---,0.67,VWS V14.01,2013-05-22 21:27:00,
2013-05-22 17:29:00,67.6,64.2,29.81,NW,315,11.0,18.0,89,0.75,,---,0.75,VWS V14.01,2013-05-22 21:29:00,
2013-05-22 17:30:00,67.4,64.1,29.81,WNW,302,10.0,14.0,89,0.83,,---,0.83,VWS V14.01,2013-05-22 21:30:00,